CDT,Max TemperatureF,Mean TemperatureF,Min TemperatureF,Max Dew PointF,MeanDew PointF,Min DewpointF,Max Humidity, Mean Humidity, Min Humidity, Max Sea Level PressureIn, Mean Sea Level PressureIn, Min Sea Level PressureIn, Max VisibilityMiles, Mean VisibilityMiles, Min VisibilityMiles, Max Wind SpeedMPH, Mean Wind SpeedMPH, Max Gust SpeedMPH,PrecipitationIn, CloudCover, Events, WindDirDegrees
2013-4-1,46,37,27,34,21,13,82,58,33,30.34,30.25,30.09,10,10,10,24,11,31,0.00,3,,38
2013-4-2,53,40,26,22,20,17,75,52,28,30.35,30.29,30.23,10,10,10,12,5,23,0.00,0,,119
2013-4-3,51,40,28,28,22,20,75,55,34,30.36,30.30,30.26,10,10,10,16,7,21,0.00,1,,176
2013-4-4,64,48,31,36,32,27,89,62,34,30.24,30.16,30.07,10,10,7,13,7,17,0.00,1,,252
2013-4-5,71,52,33,41,35,30,89,57,25,30.12,29.96,29.68,10,10,10,33,16,45,0.00,0,,171
2013-4-6,73,62,51,45,41,38,77,54,31,29.80,29.71,29.62,10,10,10,25,15,32,0.00,0,,242
2013-4-7,77,64,50,50,39,32,89,89,89,29.81,29.73,29.60,10,10,10,9,10,12,0.00,3,Thunderstorm,171
2013-4-8,76,65,53,61,57,50,100,79,57,29.68,29.63,29.55,10,7,1,24,11,32,0.00,7,,159
2013-4-9,66,48,29,61,40,28,96,87,78,30.00,29.77,29.47,10,6,1,26,17,37,0.54,8,Rain-Snow-Thunderstorm,358
2013-4-10,31,30,28,29,27,25,92,89,85,30.08,29.95,29.88,10,7,1,22,14,29,0.09,8,Rain-Snow,320
2013-4-11,41,33,25,27,25,22,92,76,59,29.93,29.82,29.75,10,10,5,22,14,28,0.00,7,,296
2013-4-12,52,40,27,33,28,23,85,62,38,30.04,29.96,29.86,10,10,10,22,10,26,0.00,2,,317
2013-4-13,67,51,35,48,38,30,82,63,43,30.05,29.83,29.47,10,10,10,28,14,38,0.00,3,,173
2013-4-14,67,54,41,47,37,23,60,42,23,29.73,29.48,29.31,10,10,10,37,19,53,0.00,0,,253
2013-4-15,51,43,35,28,25,19,70,52,33,30.04,29.90,29.72,10,10,10,20,11,26,0.00,6,,358
2013-4-16,47,42,37,31,27,25,70,56,42,30.19,30.11,30.01,10,10,10,22,13,28,0.00,7,,58
2013-4-17,43,39,34,40,37,32,100,84,67,30.06,29.89,29.75,10,6,1,30,13,38,2.12,8,Rain-Thunderstorm,20
2013-4-18,36,33,30,34,28,24,92,78,64,30.06,29.89,29.78,10,7,1,32,21,39,0.05,7,Rain-Snow,325
2013-4-19,54,41,27,29,26,22,85,60,35,30.12,30.05,30.03,10,10,10,24,12,32,0.00,1,,306
2013-4-20,58,44,29,37,29,24,78,58,38,30.17,30.11,30.03,10,10,10,24,13,31,0.00,3,,105
2013-4-21,70,57,44,43,40,37,76,56,36,30.09,30.04,29.99,10,10,10,31,15,39,T,4,Thunderstorm,172
2013-4-22,54,43,32,48,42,28,96,81,66,30.21,30.00,29.94,10,6,1,30,11,38,0.54,8,Rain-Thunderstorm,25
2013-4-23,37,33,29,28,26,21,92,74,56,30.29,30.20,30.15,10,5,0,25,14,36,0.14,8,Fog-Snow,1
2013-4-24,59,42,25,33,26,19,81,56,30,30.28,30.22,30.12,10,10,10,31,9,39,T,1,,255
2013-4-25,71,52,33,39,33,28,89,57,25,30.27,30.18,30.05,10,10,10,28,12,37,0.00,0,,175
2013-4-26,65,55,44,51,44,37,92,73,54,30.19,30.09,30.01,10,10,10,23,12,30,T,5,,160
2013-4-27,69,56,44,49,47,45,100,76,37,30.18,30.10,29.97,10,9,2,13,2,,0.00,5,,159
2013-4-28,78,64,49,55,51,48,100,70,40,29.96,29.82,29.67,10,9,3,23,16,30,0.00,1,,186
2013-4-29,82,65,49,59,52,47,86,60,34,29.74,29.63,29.50,10,10,10,26,11,37,0.00,0,,129
2013-4-30,83,73,63,59,54,48,73,58,43,29.75,29.61,29.51,10,10,10,31,15,41,0.00,4,,188